createdAt,value
2019-03-10T00:02:28.691Z,15.47
2019-03-10T00:04:58.940Z,14.77
2019-03-10T00:07:29.389Z,13.53
2019-03-10T00:09:59.689Z,14.93
2019-03-10T00:12:30.163Z,20.17
2019-03-10T00:15:00.510Z,15.03
2019-03-10T00:17:31.020Z,16.43
2019-03-10T00:20:01.422Z,15.83
2019-03-10T00:22:31.684Z,14.27
2019-03-10T00:25:01.851Z,16.70
2019-03-10T00:27:32.235Z,15.20
2019-03-10T00:30:02.554Z,13.73
2019-03-10T00:32:32.790Z,9.20
2019-03-10T00:35:03.223Z,13.57
2019-03-10T00:37:33.561Z,12.87
2019-03-10T00:41:11.102Z,11.17
2019-03-10T00:44:45.107Z,10.80
2019-03-10T00:47:59.578Z,12.57
2019-03-10T00:51:24.702Z,13.93
2019-03-10T00:53:54.819Z,12.07
2019-03-10T00:56:25.040Z,13.80
2019-03-10T00:58:55.249Z,16.07
2019-03-10T01:01:25.473Z,10.30
2019-03-10T01:03:55.835Z,11.03
2019-03-10T01:06:26.181Z,11.33
2019-03-10T01:08:56.457Z,18.67
2019-03-10T01:11:26.771Z,13.67
2019-03-10T01:13:57.004Z,9.97
2019-03-10T01:16:27.489Z,12.97
2019-03-10T01:18:58.392Z,13.27
2019-03-10T01:21:29.019Z,13.43
2019-03-10T01:23:59.212Z,9.73
2019-03-10T01:26:29.434Z,17.43
2019-03-10T01:28:59.641Z,12.83
2019-03-10T01:32:05.468Z,10.05
2019-03-10T01:34:56.779Z,10.83
2019-03-10T01:37:26.898Z,12.95
2019-03-10T01:39:57.028Z,15.40
2019-03-10T01:42:27.214Z,15.03
2019-03-10T01:44:57.340Z,10.97
2019-03-10T01:47:27.427Z,14.00
2019-03-10T01:49:57.627Z,12.87
2019-03-10T01:52:27.894Z,9.18
2019-03-10T01:54:58.157Z,10.77
2019-03-10T01:57:28.339Z,11.93
2019-03-10T01:59:58.559Z,10.20
2019-03-10T02:02:28.781Z,13.57
2019-03-10T02:04:58.993Z,11.50
2019-03-10T02:07:29.128Z,13.57
2019-03-10T02:09:59.184Z,12.17
2019-03-10T02:12:29.414Z,12.53
2019-03-10T02:15:03.873Z,12.70
2019-03-10T02:17:39.696Z,10.93
2019-03-10T02:20:13.302Z,13.75
2019-03-10T02:22:43.388Z,10.63
2019-03-10T02:25:13.690Z,10.10
2019-03-10T02:27:43.817Z,16.27
2019-03-10T02:30:19.010Z,10.03
2019-03-10T02:32:49.201Z,15.70
2019-03-10T02:35:19.335Z,14.25
2019-03-10T02:37:54.187Z,10.00
2019-03-10T02:40:24.495Z,14.17
2019-03-10T02:42:54.713Z,13.20
2019-03-10T02:45:26.181Z,15.15
2019-03-10T02:47:56.315Z,12.20
2019-03-10T02:50:28.115Z,11.47
2019-03-10T02:52:58.363Z,15.87
2019-03-10T02:55:28.585Z,12.60
2019-03-10T02:57:58.735Z,11.60
2019-03-10T03:00:28.922Z,8.17
2019-03-10T03:02:59.061Z,12.77
2019-03-10T03:05:29.199Z,10.30
2019-03-10T03:07:59.403Z,13.27
2019-03-10T03:10:29.629Z,11.80
2019-03-10T03:12:59.831Z,8.10
2019-03-10T03:15:29.952Z,14.70
2019-03-10T03:18:00.070Z,14.03
2019-03-10T03:20:30.304Z,13.17
2019-03-10T03:23:00.531Z,11.57
2019-03-10T03:25:30.774Z,16.95
2019-03-10T03:28:02.376Z,13.07
2019-03-10T03:30:33.219Z,10.13
2019-03-10T03:33:03.538Z,12.90
2019-03-10T03:35:55.032Z,13.23
2019-03-10T03:38:39.364Z,10.80
2019-03-10T03:41:13.792Z,13.53
2019-03-10T03:43:44.236Z,14.27
2019-03-10T03:46:14.462Z,13.20
2019-03-10T03:48:44.663Z,12.67
2019-03-10T03:51:14.943Z,13.40
2019-03-10T03:53:45.078Z,9.33
2019-03-10T03:56:15.298Z,12.63
2019-03-10T03:58:45.540Z,11.97
2019-03-10T04:01:19.435Z,13.95
2019-03-10T04:03:49.841Z,11.83
2019-03-10T04:06:20.321Z,12.73
2019-03-10T04:08:50.772Z,13.20
2019-03-10T04:11:21.196Z,13.33
2019-03-10T04:13:51.395Z,13.73
2019-03-10T04:16:21.855Z,17.60
2019-03-10T04:18:52.340Z,15.80
2019-03-10T04:21:22.820Z,11.63
2019-03-10T04:23:53.189Z,16.02
2019-03-10T04:26:23.481Z,9.20
2019-03-10T04:28:53.701Z,19.77
2019-03-10T04:31:24.063Z,12.70
2019-03-10T04:33:57.045Z,14.40
2019-03-10T04:36:27.269Z,15.33
2019-03-10T04:39:00.587Z,22.83
2019-03-10T04:41:30.905Z,12.50
2019-03-10T04:44:01.121Z,12.47
2019-03-10T04:46:31.644Z,13.00
2019-03-10T04:49:01.754Z,10.23
2019-03-10T04:51:31.941Z,13.73
2019-03-10T04:54:02.012Z,12.70
2019-03-10T04:56:42.802Z,11.57
2019-03-10T04:59:12.931Z,10.10
2019-03-10T05:01:43.109Z,10.70
2019-03-10T05:04:13.311Z,12.80
2019-03-10T05:06:43.561Z,9.63
2019-03-10T05:09:15.502Z,16.30
2019-03-10T05:11:46.753Z,10.77
2019-03-10T05:14:16.816Z,8.20
2019-03-10T05:16:46.941Z,12.43
2019-03-10T05:19:17.049Z,12.43
2019-03-10T05:21:47.128Z,13.97
2019-03-10T05:24:17.402Z,10.43
2019-03-10T05:26:47.597Z,10.20
2019-03-10T05:29:17.665Z,14.57
2019-03-10T05:31:47.917Z,7.23
2019-03-10T05:34:17.971Z,13.43
2019-03-10T05:36:48.150Z,12.87
2019-03-10T05:39:18.265Z,8.87
2019-03-10T05:41:48.385Z,9.97
2019-03-10T05:44:18.526Z,14.00
2019-03-10T05:46:48.575Z,8.87
2019-03-10T05:49:18.619Z,9.85
2019-03-10T05:51:48.678Z,11.53
2019-03-10T05:54:18.823Z,7.70
2019-03-10T05:56:48.953Z,12.10
2019-03-10T05:59:19.045Z,19.90
2019-03-10T06:01:49.102Z,14.97
2019-03-10T06:04:19.241Z,15.67
2019-03-10T06:06:49.285Z,13.97
2019-03-10T06:09:19.400Z,11.53
2019-03-10T06:11:49.508Z,14.17
2019-03-10T06:14:19.654Z,14.10
2019-03-10T06:16:49.774Z,15.87
2019-03-10T06:19:19.801Z,16.27
2019-03-10T06:21:49.896Z,14.97
2019-03-10T06:24:19.976Z,14.70
2019-03-10T06:26:50.121Z,15.17
2019-03-10T06:29:22.483Z,13.07
2019-03-10T06:31:52.863Z,13.00
2019-03-10T06:34:23.359Z,11.65
2019-03-10T06:36:53.786Z,16.77
2019-03-10T06:39:24.215Z,17.95
2019-03-10T06:41:54.644Z,14.07
2019-03-10T06:44:26.991Z,23.97
2019-03-10T06:46:57.319Z,17.10
2019-03-10T06:49:27.771Z,17.53
2019-03-10T06:51:58.196Z,14.47
2019-03-10T06:54:28.606Z,18.37
2019-03-10T06:56:59.038Z,17.33
2019-03-10T06:59:29.464Z,12.10
2019-03-10T07:01:59.918Z,17.13
2019-03-10T07:04:30.396Z,23.97
2019-03-10T07:07:00.842Z,18.90
2019-03-10T07:09:31.392Z,15.27
2019-03-10T07:12:01.796Z,17.10
2019-03-10T07:14:32.214Z,16.10
2019-03-10T07:17:02.661Z,15.60
2019-03-10T07:19:33.080Z,17.60
2019-03-10T07:22:03.606Z,14.37
2019-03-10T07:24:34.033Z,21.62
2019-03-10T07:27:04.823Z,17.07
2019-03-10T07:29:42.936Z,16.35
2019-03-10T07:32:19.041Z,12.80
2019-03-10T07:35:11.431Z,12.83
2019-03-10T07:38:15.719Z,11.03
2019-03-10T07:41:01.361Z,11.30
2019-03-10T07:43:49.457Z,10.90
2019-03-10T07:46:48.013Z,11.60
2019-03-10T07:49:27.446Z,10.97
2019-03-10T07:52:20.604Z,16.43
2019-03-10T07:55:25.655Z,14.03
2019-03-10T07:58:24.586Z,11.47
2019-03-10T08:01:19.339Z,13.57
2019-03-10T08:04:11.764Z,7.57
2019-03-10T08:07:04.243Z,14.10
2019-03-10T08:09:53.701Z,12.10
2019-03-10T08:12:41.719Z,14.63
2019-03-10T08:15:29.654Z,14.90
2019-03-10T08:18:17.448Z,10.47
2019-03-10T08:20:58.084Z,11.50
2019-03-10T08:24:32.390Z,14.63
2019-03-10T08:27:17.523Z,13.27
2019-03-10T08:30:04.363Z,14.77
2019-03-10T08:32:53.407Z,17.50
2019-03-10T08:35:52.632Z,11.53
2019-03-10T08:38:33.730Z,14.10
2019-03-10T08:41:21.369Z,11.43
2019-03-10T08:43:59.053Z,12.70
2019-03-10T08:46:41.620Z,10.20
2019-03-10T08:49:44.460Z,15.47
2019-03-10T08:52:14.040Z,14.80
2019-03-10T08:54:59.776Z,11.83
2019-03-10T08:57:47.654Z,11.30
2019-03-10T09:00:36.797Z,13.07
2019-03-10T09:03:17.393Z,12.25
2019-03-10T09:06:09.567Z,10.60
2019-03-10T09:08:49.930Z,13.47
2019-03-10T09:14:14.182Z,12.20
2019-03-10T09:16:59.234Z,14.83
2019-03-10T09:19:51.475Z,14.70
2019-03-10T09:22:34.207Z,13.13
2019-03-10T09:25:29.348Z,13.77
2019-03-10T09:28:21.203Z,9.07
2019-03-10T09:31:16.236Z,10.33
2019-03-10T09:33:56.991Z,11.97
2019-03-10T09:36:40.068Z,7.87
2019-03-10T09:39:38.307Z,11.30
2019-03-10T09:42:25.798Z,12.33
2019-03-10T09:45:10.695Z,10.80
2019-03-10T09:48:02.970Z,12.13
2019-03-10T09:50:56.325Z,11.87
2019-03-10T09:53:34.600Z,8.63
2019-03-10T09:56:26.866Z,13.10
2019-03-10T09:59:24.119Z,10.70
2019-03-10T10:02:25.525Z,13.47
2019-03-10T10:05:03.379Z,13.95
2019-03-10T10:07:45.712Z,9.70
2019-03-10T10:10:38.001Z,9.13
2019-03-10T10:13:21.187Z,13.30
2019-03-10T10:16:25.642Z,12.80
2019-03-10T10:19:20.816Z,13.37
2019-03-10T10:22:00.795Z,11.00
2019-03-10T10:24:36.953Z,12.40
2019-03-10T10:27:23.232Z,13.33
2019-03-10T10:30:18.422Z,12.40
2019-03-10T10:33:06.905Z,7.13
2019-03-10T10:35:47.347Z,13.47
2019-03-10T10:38:39.465Z,10.13
2019-03-10T10:41:27.949Z,9.77
2019-03-10T10:44:12.392Z,10.40
2019-03-10T10:46:49.668Z,11.75
2019-03-10T10:49:37.913Z,7.73
2019-03-10T10:52:20.100Z,7.97
2019-03-10T10:55:00.835Z,8.97
2019-03-10T10:57:42.688Z,9.63
2019-03-10T11:00:27.789Z,7.65
2019-03-10T11:03:23.641Z,10.10
2019-03-10T11:06:19.949Z,8.30
2019-03-10T11:09:04.484Z,7.35
2019-03-10T11:11:53.548Z,12.63
2019-03-10T11:14:48.682Z,10.55
2019-03-10T11:17:37.826Z,9.28
2019-03-10T11:20:33.711Z,6.80
2019-03-10T11:23:28.766Z,8.87
2019-03-10T11:26:30.105Z,9.90
2019-03-10T11:29:09.448Z,8.67
2019-03-10T11:32:01.444Z,8.83
2019-03-10T11:34:43.000Z,9.23
2019-03-10T11:37:29.843Z,9.57
2019-03-10T11:40:33.975Z,10.97
2019-03-10T11:43:09.199Z,10.13
2019-03-10T11:45:57.867Z,13.77
2019-03-10T11:48:52.963Z,9.40
2019-03-10T11:51:39.816Z,7.40
2019-03-10T11:54:17.774Z,11.10
2019-03-10T11:57:19.121Z,7.47
2019-03-10T12:00:11.576Z,10.87
2019-03-10T12:03:04.027Z,7.80
2019-03-10T12:05:56.869Z,9.23
2019-03-10T12:08:58.106Z,12.00
2019-03-10T12:11:28.502Z,16.80
2019-03-10T12:13:58.596Z,10.63
2019-03-10T12:16:31.081Z,10.73
2019-03-10T12:19:00.957Z,10.17
2019-03-10T12:21:31.141Z,6.40
2019-03-10T12:24:01.477Z,7.37
2019-03-10T12:26:36.209Z,10.50
2019-03-10T12:29:06.965Z,7.58
2019-03-10T12:31:37.230Z,5.27
2019-03-10T12:34:07.596Z,5.27
2019-03-10T12:36:37.784Z,5.27
2019-03-10T12:39:09.596Z,5.73
2019-03-10T12:41:39.817Z,7.03
2019-03-10T12:45:48.088Z,11.17
2019-03-10T12:48:19.049Z,4.70
2019-03-10T12:50:49.180Z,3.73
2019-03-10T12:53:19.413Z,4.47
2019-03-10T12:55:49.585Z,2.80
2019-03-10T12:58:19.827Z,6.03
2019-03-10T13:00:50.070Z,4.50
2019-03-10T13:03:20.248Z,4.90
2019-03-10T13:05:50.446Z,4.00
2019-03-10T13:08:20.530Z,5.60
2019-03-10T13:11:08.888Z,4.37
2019-03-10T13:13:39.286Z,3.73
2019-03-10T13:16:12.248Z,3.50
2019-03-10T13:18:41.651Z,2.70
2019-03-10T13:21:11.959Z,4.12
2019-03-10T13:23:42.288Z,4.77
2019-03-10T13:26:12.403Z,3.10
2019-03-10T13:28:42.639Z,2.00
2019-03-10T13:31:13.022Z,5.90
2019-03-10T13:33:43.318Z,2.23
2019-03-10T13:36:13.581Z,4.05
2019-03-10T13:38:43.807Z,3.23
2019-03-10T13:41:14.103Z,2.23
2019-03-10T13:43:44.361Z,3.47
2019-03-10T13:46:14.701Z,4.28
2019-03-10T13:48:45.031Z,5.43
2019-03-10T13:51:15.288Z,5.90
2019-03-10T13:53:45.511Z,4.67
2019-03-10T13:56:15.680Z,4.07
2019-03-10T13:58:45.887Z,3.43
2019-03-10T14:01:16.178Z,3.55
2019-03-10T14:03:46.411Z,4.23
2019-03-10T14:06:16.658Z,3.42
2019-03-10T14:08:46.815Z,3.33
2019-03-10T14:11:17.119Z,4.17
2019-03-10T14:13:47.272Z,5.00
2019-03-10T14:16:17.621Z,4.80
2019-03-10T14:18:47.822Z,5.40
2019-03-10T14:21:18.084Z,4.83
2019-03-10T14:23:48.298Z,3.77
2019-03-10T14:26:18.623Z,4.45
2019-03-10T14:28:48.952Z,5.73
2019-03-10T14:31:19.225Z,4.03
2019-03-10T14:33:49.558Z,3.33
2019-03-10T14:36:20.089Z,3.40
2019-03-10T14:38:50.446Z,15.50
2019-03-10T14:41:20.693Z,5.47
2019-03-10T14:43:50.976Z,4.47
2019-03-10T14:46:21.100Z,4.23
2019-03-10T14:48:51.297Z,4.03
2019-03-10T14:51:29.320Z,9.90
2019-03-10T14:54:02.617Z,12.87
2019-03-10T14:56:32.902Z,9.70
2019-03-10T14:59:02.994Z,8.37
2019-03-10T15:01:33.285Z,6.43
2019-03-10T15:04:05.059Z,6.03
2019-03-10T15:06:35.218Z,4.43
2019-03-10T15:09:07.239Z,3.00
2019-03-10T15:11:37.383Z,3.43
2019-03-10T15:14:07.627Z,3.42
2019-03-10T15:16:37.869Z,3.23
2019-03-10T15:19:08.184Z,4.53
2019-03-10T15:21:38.428Z,5.10
2019-03-10T15:24:08.575Z,2.73
2019-03-10T15:26:45.510Z,2.63
2019-03-10T15:29:10.654Z,5.33
2019-03-10T15:31:40.789Z,1.98
2019-03-10T15:34:10.964Z,2.92
2019-03-10T15:36:41.605Z,3.17
2019-03-10T15:39:12.020Z,4.93
2019-03-10T15:41:42.248Z,4.93
2019-03-10T15:44:12.428Z,4.47
2019-03-10T15:49:14.036Z,6.80
2019-03-10T15:51:44.782Z,6.20
2019-03-10T15:54:14.954Z,4.60
2019-03-10T15:56:45.177Z,4.67
2019-03-10T15:59:15.391Z,8.83
2019-03-10T16:01:48.540Z,9.97
2019-03-10T16:04:23.474Z,6.10
2019-03-10T16:06:53.618Z,7.13
2019-03-10T16:09:23.847Z,6.43
2019-03-10T16:11:54.092Z,5.00
2019-03-10T16:14:24.387Z,3.90
2019-03-10T16:16:54.450Z,4.20
2019-03-10T16:19:24.505Z,6.73
2019-03-10T16:21:54.702Z,5.03
2019-03-10T16:24:24.913Z,5.77
2019-03-10T16:26:58.476Z,6.23
2019-03-10T16:29:28.698Z,3.97
2019-03-10T16:31:58.907Z,3.50
2019-03-10T16:34:29.032Z,4.90
2019-03-10T16:36:59.281Z,4.20
2019-03-10T16:39:29.471Z,4.00
2019-03-10T16:41:59.645Z,4.17
2019-03-10T16:44:53.296Z,3.33
2019-03-10T16:47:30.663Z,3.80
2019-03-10T16:50:09.528Z,5.97
2019-03-10T16:52:47.025Z,3.53
2019-03-10T16:55:25.399Z,3.37
2019-03-10T16:58:07.334Z,2.50
2019-03-10T17:00:45.606Z,3.83
2019-03-10T17:03:26.124Z,4.03
2019-03-10T17:06:03.795Z,4.37
2019-03-10T17:08:41.316Z,5.53
2019-03-10T17:11:19.006Z,3.57
2019-03-10T17:13:55.522Z,5.60
2019-03-10T17:16:33.765Z,6.83
2019-03-10T17:19:10.874Z,4.83
2019-03-10T17:21:47.955Z,7.23
2019-03-10T17:24:24.455Z,5.73
2019-03-10T17:27:01.445Z,5.93
2019-03-10T17:29:37.954Z,5.57
2019-03-10T17:32:15.249Z,5.03
2019-03-10T17:34:54.446Z,3.37
2019-03-10T17:37:30.859Z,5.00
2019-03-10T17:40:08.791Z,4.43
2019-03-10T17:42:45.780Z,5.57
2019-03-10T17:45:26.739Z,6.10
2019-03-10T17:48:05.349Z,7.13
2019-03-10T17:50:42.970Z,4.83
2019-03-10T17:53:23.697Z,4.57
2019-03-10T17:55:59.692Z,4.83
2019-03-10T17:58:36.515Z,3.97
2019-03-10T18:01:13.272Z,6.37
2019-03-10T18:03:50.557Z,3.67
2019-03-10T18:06:30.256Z,4.00
2019-03-10T18:09:09.091Z,2.90
2019-03-10T18:11:45.450Z,1.97
2019-03-10T18:14:23.096Z,1.20
2019-03-10T18:17:01.716Z,3.30
2019-03-10T18:19:38.685Z,4.67
2019-03-10T18:22:16.560Z,2.83
2019-03-10T18:24:53.970Z,4.60
2019-03-10T18:27:31.830Z,2.60
2019-03-10T18:30:09.476Z,4.43
2019-03-10T18:32:47.904Z,4.05
2019-03-10T18:35:24.424Z,2.83
2019-03-10T18:38:02.153Z,2.50
2019-03-10T18:40:38.743Z,2.80
2019-03-10T18:43:15.045Z,4.73
2019-03-10T18:45:53.988Z,3.60
2019-03-10T18:48:30.306Z,5.40
2019-03-10T18:51:06.230Z,3.87
2019-03-10T18:53:42.945Z,5.37
2019-03-10T18:56:17.819Z,5.53
2019-03-10T18:58:57.145Z,5.77
2019-03-10T19:01:34.511Z,5.03
2019-03-10T19:04:10.548Z,3.57
2019-03-10T19:06:54.754Z,3.30
2019-03-10T19:09:29.611Z,2.97
2019-03-10T19:12:05.310Z,2.57
2019-03-10T19:14:35.396Z,8.30
2019-03-10T19:17:06.626Z,4.86
2019-03-10T19:19:36.840Z,5.13
2019-03-10T19:22:07.325Z,4.40
2019-03-10T19:24:37.947Z,4.20
2019-03-10T19:27:08.431Z,4.03
2019-03-10T19:29:39.226Z,3.20
2019-03-10T19:32:13.795Z,2.40
2019-03-10T19:34:46.689Z,1.53
2019-03-10T19:37:17.872Z,1.40
2019-03-10T19:39:48.488Z,1.53
2019-03-10T19:42:19.131Z,2.60
2019-03-10T19:44:49.681Z,3.73
2019-03-10T19:47:20.385Z,2.60
2019-03-10T19:49:50.792Z,3.07
2019-03-10T19:52:21.465Z,3.08
2019-03-10T19:54:52.582Z,2.77
2019-03-10T19:57:22.925Z,1.30
2019-03-10T19:59:53.903Z,2.33
2019-03-10T20:02:24.401Z,4.00
2019-03-10T20:04:54.888Z,2.10
2019-03-10T20:07:25.243Z,3.03
2019-03-10T20:09:55.785Z,1.70
2019-03-10T20:12:26.288Z,1.60
2019-03-10T20:14:56.807Z,1.90
2019-03-10T20:17:27.351Z,2.60
2019-03-10T20:19:57.788Z,2.47
2019-03-10T20:22:28.407Z,2.80
2019-03-10T20:24:59.008Z,2.23
2019-03-10T20:27:29.628Z,2.50
2019-03-10T20:30:00.352Z,3.63
2019-03-10T20:32:30.712Z,3.57
2019-03-10T20:35:01.170Z,3.97
2019-03-10T20:37:31.675Z,3.60
2019-03-10T20:40:02.185Z,3.27
2019-03-10T20:42:32.756Z,3.53
2019-03-10T20:45:03.240Z,3.98
2019-03-10T20:47:34.078Z,3.42
2019-03-10T20:50:04.974Z,3.63
2019-03-10T20:52:35.787Z,4.63
2019-03-10T20:55:06.339Z,8.00
2019-03-10T20:57:36.951Z,2.60
2019-03-10T21:00:20.161Z,4.13
2019-03-10T21:02:47.125Z,2.93
2019-03-10T21:05:18.462Z,3.63
2019-03-10T21:07:49.311Z,5.57
2019-03-10T21:10:20.077Z,3.90
2019-03-10T21:12:50.656Z,3.17
2019-03-10T21:15:21.221Z,2.97
2019-03-10T21:17:52.258Z,2.93
2019-03-10T21:20:26.520Z,2.90
2019-03-10T21:22:57.006Z,3.03
2019-03-10T21:25:29.016Z,3.73
2019-03-10T21:27:59.850Z,3.27
2019-03-10T21:30:30.641Z,4.07
2019-03-10T21:33:01.183Z,3.70
2019-03-10T21:35:33.284Z,5.17
2019-03-10T21:38:04.190Z,4.10
2019-03-10T21:40:34.928Z,4.17
2019-03-10T21:43:06.128Z,2.83
2019-03-10T21:45:36.847Z,4.67
2019-03-10T21:48:07.493Z,5.83
2019-03-10T21:50:38.224Z,4.90
2019-03-10T21:53:09.038Z,4.80
2019-03-10T21:55:39.563Z,4.13
2019-03-10T21:58:10.111Z,8.97
2019-03-10T22:00:40.486Z,7.57
2019-03-10T22:03:11.036Z,4.40
2019-03-10T22:05:41.696Z,7.03
2019-03-10T22:08:12.187Z,7.08
2019-03-10T22:10:43.027Z,6.30
2019-03-10T22:13:13.506Z,6.80
2019-03-10T22:15:44.153Z,6.53
2019-03-10T22:18:14.833Z,4.67
2019-03-10T22:20:45.361Z,3.90
2019-03-10T22:23:21.898Z,3.90
2019-03-10T22:25:52.438Z,3.43
2019-03-10T22:28:22.904Z,4.50
2019-03-10T22:30:53.330Z,7.17
2019-03-10T22:33:23.795Z,9.98
2019-03-10T22:35:54.489Z,5.00
2019-03-10T22:38:25.104Z,6.10
2019-03-10T22:40:55.303Z,4.80
2019-03-10T22:43:25.523Z,6.33
2019-03-10T22:45:55.670Z,3.57
2019-03-10T22:48:25.976Z,4.13
2019-03-10T22:50:56.103Z,5.50
2019-03-10T22:53:26.244Z,4.47
2019-03-10T22:55:56.421Z,5.17
2019-03-10T22:58:26.628Z,4.97
2019-03-10T23:00:58.293Z,6.47
2019-03-10T23:03:28.649Z,3.70
2019-03-10T23:05:58.871Z,6.50
2019-03-10T23:08:29.031Z,7.60
2019-03-10T23:10:59.302Z,4.67
2019-03-10T23:13:29.433Z,6.47
2019-03-10T23:15:59.618Z,6.63
2019-03-10T23:18:29.741Z,7.20
2019-03-10T23:20:59.887Z,8.67
2019-03-10T23:23:30.025Z,10.60
2019-03-10T23:26:00.231Z,13.90
2019-03-10T23:28:30.480Z,13.43
2019-03-10T23:31:00.716Z,7.53
2019-03-10T23:33:31.045Z,10.57
2019-03-10T23:36:01.339Z,7.87
2019-03-10T23:38:31.659Z,14.43
2019-03-10T23:41:01.874Z,14.73
2019-03-10T23:43:31.955Z,12.57
2019-03-10T23:46:02.727Z,8.03
2019-03-10T23:48:32.954Z,16.60
2019-03-10T23:51:03.189Z,15.33
2019-03-10T23:53:33.360Z,20.10
2019-03-10T23:56:03.625Z,14.07
2019-03-10T23:58:33.878Z,23.40
